Time;durP1;ratioP1;P1;durP2;ratioP2;P2;SDS_P1;SDS_P2;PMS_P1;PMS_P2;Temp;Humidity;BMP_temperature;BMP_pressure;BME280_temperature;BME280_humidity;BME280_pressure;Samples;Min_cycle;Max_cycle;Signal;HPM_P1;HPM_P2
2023/04/25 00:01:17;;;;;;;20.73;13.05;;;15.30;99.90;;;;;;5072726;28;20220;-74
2023/04/25 00:04:06;;;;;;;15.57;12.45;;;15.00;99.90;;;;;;5077984;28;20763;-74
2023/04/25 00:06:57;;;;;;;15.95;12.65;;;14.90;99.90;;;;;;5074760;28;20226;-74
2023/04/25 00:09:46;;;;;;;15.35;12.32;;;15.10;99.90;;;;;;5070205;28;20228;-74
2023/04/25 00:12:35;;;;;;;16.33;13.70;;;15.00;99.90;;;;;;5070793;28;20232;-75
2023/04/25 00:15:25;;;;;;;14.25;11.82;;;15.00;99.90;;;;;;5074820;28;20220;-74
2023/04/25 00:18:14;;;;;;;16.25;12.90;;;15.00;99.90;;;;;;5086597;28;20231;-74
2023/04/25 00:21:02;;;;;;;16.02;12.68;;;15.10;99.90;;;;;;5081981;28;20255;-74
2023/04/25 00:23:55;;;;;;;16.20;12.95;;;15.20;99.90;;;;;;5078380;28;20216;-73
2023/04/25 00:26:43;;;;;;;17.42;13.32;;;15.00;99.90;;;;;;5080785;28;20352;-74
2023/04/25 00:29:32;;;;;;;15.75;13.45;;;15.10;99.90;;;;;;5058329;28;20239;-77
2023/04/25 00:32:21;;;;;;;17.83;12.82;;;15.10;99.90;;;;;;5047143;28;20228;-74
2023/04/25 00:35:11;;;;;;;15.93;13.10;;;15.00;99.90;;;;;;5058714;28;20216;-75
2023/04/25 00:37:59;;;;;;;17.98;13.82;;;15.10;99.90;;;;;;5073640;28;20234;-75
2023/04/25 00:40:53;;;;;;;16.75;12.88;;;15.10;99.90;;;;;;5061804;28;20232;-75
2023/04/25 00:43:43;;;;;;;16.92;13.80;;;15.10;99.90;;;;;;5057370;28;20276;-75
2023/04/25 00:46:32;;;;;;;15.60;13.20;;;15.10;99.90;;;;;;5048061;28;20930;-75
2023/04/25 00:49:21;;;;;;;15.90;13.80;;;15.20;99.90;;;;;;5068272;28;20224;-75
2023/04/25 00:52:11;;;;;;;17.88;13.88;;;15.10;99.90;;;;;;5046429;28;20836;-74
2023/04/25 00:55:01;;;;;;;17.45;14.45;;;15.20;99.90;;;;;;5045384;28;20307;-74
2023/04/25 00:57:52;;;;;;;19.35;14.13;;;15.20;99.90;;;;;;5048212;28;20346;-73
2023/04/25 01:00:41;;;;;;;17.45;14.13;;;15.00;99.90;;;;;;5064473;28;20228;-74
2023/04/25 01:03:35;;;;;;;15.75;14.15;;;14.90;99.90;;;;;;5045251;28;20355;-73
2023/04/25 01:06:24;;;;;;;15.88;13.75;;;14.90;99.90;;;;;;5072142;28;20232;-73
2023/04/25 01:09:14;;;;;;;16.80;14.23;;;14.90;99.90;;;;;;5054642;28;20217;-73
2023/04/25 01:12:03;;;;;;;19.67;14.18;;;14.90;99.90;;;;;;5062938;28;20220;-75
2023/04/25 01:14:53;;;;;;;17.52;14.18;;;14.80;99.90;;;;;;5062625;28;20247;-73
2023/04/25 01:17:43;;;;;;;16.00;13.52;;;14.90;99.90;;;;;;5051280;28;20228;-73
2023/04/25 01:20:33;;;;;;;15.02;13.50;;;14.80;99.90;;;;;;5053586;28;20235;-73
2023/04/25 01:23:24;;;;;;;16.02;13.98;;;14.80;99.90;;;;;;5076777;28;20769;-73
2023/04/25 01:26:14;;;;;;;15.82;12.85;;;14.60;99.90;;;;;;5050886;28;20815;-72
2023/04/25 01:29:05;;;;;;;15.57;12.43;;;14.50;99.90;;;;;;5081463;28;20310;-72
2023/04/25 01:31:55;;;;;;;14.13;12.63;;;14.60;99.90;;;;;;5086409;28;20223;-74
2023/04/25 01:34:44;;;;;;;15.07;11.73;;;14.60;99.90;;;;;;5075579;28;20220;-74
2023/04/25 01:37:33;;;;;;;14.15;11.02;;;14.50;99.90;;;;;;5078824;28;20252;-73
2023/04/25 01:40:25;;;;;;;15.05;12.50;;;14.50;99.90;;;;;;5083302;28;20327;-74
2023/04/25 01:43:14;;;;;;;14.32;12.43;;;14.50;99.90;;;;;;5085938;28;20685;-74
2023/04/25 01:46:03;;;;;;;15.00;12.27;;;14.50;99.90;;;;;;5078712;28;20299;-74
2023/04/25 01:48:52;;;;;;;15.70;11.85;;;14.60;99.90;;;;;;5078483;28;20964;-74
2023/04/25 01:51:41;;;;;;;14.50;12.05;;;14.60;99.90;;;;;;5100803;27;20287;-74
2023/04/25 01:54:31;;;;;;;17.17;12.93;;;14.70;99.90;;;;;;5073326;28;20693;-74
2023/04/25 01:57:21;;;;;;;16.30;12.65;;;14.60;99.90;;;;;;5077939;28;20215;-74
2023/04/25 02:00:11;;;;;;;15.38;12.77;;;14.50;99.90;;;;;;5076297;28;20317;-74
2023/04/25 02:03:01;;;;;;;13.48;11.82;;;14.50;99.90;;;;;;5079020;28;20215;-74
2023/04/25 02:05:54;;;;;;;15.35;12.25;;;14.50;99.90;;;;;;5070707;28;20228;-74
2023/04/25 02:08:43;;;;;;;14.18;12.27;;;14.50;99.90;;;;;;5075823;28;20219;-74
2023/04/25 02:11:34;;;;;;;15.10;12.90;;;14.30;99.90;;;;;;5078006;28;20667;-75
2023/04/25 02:15:03;;;;;;;13.27;11.88;;;14.30;99.90;;;;;;5005264;28;20226;-73
2023/04/25 02:18:12;;;;;;;13.80;12.23;;;14.20;99.90;;;;;;5017852;28;20307;-72
2023/04/25 02:21:02;;;;;;;14.13;11.95;;;14.20;99.90;;;;;;5077452;28;20292;-74
2023/04/25 02:23:51;;;;;;;14.52;11.43;;;14.20;99.90;;;;;;5076309;28;20219;-72
2023/04/25 02:26:41;;;;;;;14.07;11.68;;;14.20;99.90;;;;;;5065321;28;20243;-74
2023/04/25 02:29:30;;;;;;;12.45;11.18;;;14.20;99.90;;;;;;5070405;28;20535;-74
2023/04/25 02:32:20;;;;;;;15.27;12.05;;;14.10;99.90;;;;;;5071611;28;20223;-74
2023/04/25 02:35:10;;;;;;;13.57;11.57;;;14.10;99.90;;;;;;5072244;28;20255;-74
2023/04/25 02:37:59;;;;;;;13.07;10.65;;;14.00;99.90;;;;;;5102787;27;20230;-73
2023/04/25 02:40:48;;;;;;;12.82;10.93;;;14.10;99.90;;;;;;5074991;28;20223;-73
2023/04/25 02:43:37;;;;;;;13.05;10.55;;;14.00;99.90;;;;;;5070983;28;20231;-73
2023/04/25 02:46:26;;;;;;;14.38;10.88;;;;;;;;;;5084793;28;20238;-74
2023/04/25 02:49:28;;;;;;;12.50;10.55;;;13.90;99.90;;;;;;5080066;28;20223;-75
2023/04/25 02:52:17;;;;;;;11.70;10.50;;;13.80;99.90;;;;;;5082426;28;20239;-77
2023/04/25 02:55:12;;;;;;;10.70;9.57;;;13.80;99.90;;;;;;5089711;28;20437;-74
2023/04/25 02:58:03;;;;;;;13.15;9.45;;;13.70;99.90;;;;;;5076619;28;20218;-75
2023/04/25 03:01:06;;;;;;;13.02;10.05;;;13.70;99.90;;;;;;5099259;27;20226;-76
2023/04/25 03:03:58;;;;;;;16.05;10.82;;;13.60;99.90;;;;;;5058645;28;20599;-76
2023/04/25 03:06:49;;;;;;;10.32;9.18;;;13.70;99.90;;;;;;5070205;28;21135;-76
2023/04/25 03:09:41;;;;;;;12.68;9.60;;;13.70;99.90;;;;;;5073001;28;20250;-76
2023/04/25 03:12:30;;;;;;;12.77;10.30;;;13.70;99.90;;;;;;5096231;27;20956;-77
2023/04/25 03:15:19;;;;;;;12.98;10.27;;;13.70;99.90;;;;;;5077332;28;20220;-75
2023/04/25 03:18:09;;;;;;;13.57;10.02;;;13.70;99.90;;;;;;5093587;27;20223;-74
2023/04/25 03:21:01;;;;;;;13.50;9.57;;;13.70;99.90;;;;;;5096714;27;20216;-74
2023/04/25 03:23:53;;;;;;;12.52;9.75;;;13.60;99.90;;;;;;5078370;28;20215;-75
2023/04/25 03:26:42;;;;;;;11.77;9.88;;;13.70;99.90;;;;;;5067579;28;20266;-75
2023/04/25 03:29:31;;;;;;;13.43;10.48;;;13.90;99.90;;;;;;5073746;28;20219;-75
2023/04/25 03:32:23;;;;;;;10.43;9.25;;;13.80;99.90;;;;;;5065939;28;20710;-75
2023/04/25 03:35:13;;;;;;;15.32;10.23;;;13.90;99.90;;;;;;5088865;28;21066;-75
2023/04/25 03:38:02;;;;;;;11.90;9.45;;;13.90;99.90;;;;;;5080073;28;20678;-76
2023/04/25 03:40:57;;;;;;;11.40;9.35;;;13.90;99.90;;;;;;5083700;28;20226;-73
2023/04/25 03:43:55;;;;;;;16.33;10.00;;;14.00;99.90;;;;;;5078624;28;20317;-70
2023/04/25 03:46:44;;;;;;;11.13;9.63;;;14.00;99.90;;;;;;5075053;28;20232;-73
2023/04/25 03:49:35;;;;;;;12.55;9.77;;;14.10;99.90;;;;;;5100366;27;20238;-76
2023/04/25 03:52:27;;;;;;;13.85;9.25;;;14.10;99.90;;;;;;5080024;28;20717;-74
2023/04/25 03:55:16;;;;;;;11.00;9.05;;;14.00;99.90;;;;;;5101676;27;21831;-74
2023/04/25 03:58:08;;;;;;;9.93;8.70;;;13.90;99.90;;;;;;5071413;28;20223;-74
2023/04/25 04:01:00;;;;;;;11.73;9.27;;;14.00;99.90;;;;;;5074058;28;20312;-74
2023/04/25 04:03:49;;;;;;;10.13;8.50;;;13.90;99.90;;;;;;5080316;28;20306;-75
2023/04/25 04:06:39;;;;;;;10.93;8.90;;;14.00;99.90;;;;;;5074911;28;20228;-75
2023/04/25 04:09:39;;;;;;;10.25;8.13;;;13.80;99.90;;;;;;5082179;28;20274;-75
2023/04/25 04:12:32;;;;;;;15.88;9.10;;;13.90;99.90;;;;;;5079761;28;20237;-75
2023/04/25 04:15:22;;;;;;;12.00;8.93;;;14.00;99.90;;;;;;5076482;28;20305;-74
2023/04/25 04:18:11;;;;;;;12.27;8.30;;;13.90;99.90;;;;;;5071632;28;20220;-74
2023/04/25 04:20:59;;;;;;;11.27;8.20;;;14.00;99.90;;;;;;5071800;28;20231;-74
2023/04/25 04:23:51;;;;;;;9.63;7.72;;;14.00;99.90;;;;;;5077018;28;20309;-74
2023/04/25 04:26:44;;;;;;;9.40;7.72;;;14.00;99.90;;;;;;5078859;28;20231;-75
2023/04/25 04:29:52;;;;;;;9.70;8.70;;;14.00;99.90;;;;;;5036601;28;20402;-74
2023/04/25 04:32:52;;;;;;;10.98;7.63;;;14.00;99.90;;;;;;5045341;28;20230;-74
2023/04/25 04:35:42;;;;;;;9.57;7.68;;;14.00;99.90;;;;;;5041604;28;20216;-75
2023/04/25 04:38:33;;;;;;;7.63;6.75;;;14.00;99.90;;;;;;5051535;28;20255;-73
2023/04/25 04:41:24;;;;;;;8.38;6.97;;;14.10;99.90;;;;;;5043801;28;20350;-75
2023/04/25 04:44:23;;;;;;;9.60;7.75;;;14.00;99.90;;;;;;5052448;28;20918;-75
2023/04/25 04:47:30;;;;;;;10.73;7.32;;;14.00;99.90;;;;;;5042436;28;20263;-74
2023/04/25 04:50:40;;;;;;;9.43;7.43;;;13.90;99.90;;;;;;5071911;28;20227;-73
2023/04/25 04:53:39;;;;;;;8.60;6.78;;;14.00;99.90;;;;;;5048529;28;20254;-74
2023/04/25 04:56:46;;;;;;;8.20;7.00;;;13.90;99.90;;;;;;5058312;28;20247;-74
2023/04/25 04:59:44;;;;;;;9.18;8.00;;;14.00;99.90;;;;;;5069864;28;20579;-73
2023/04/25 05:02:56;;;;;;;8.93;7.43;;;13.90;99.90;;;;;;5058807;28;20359;-74
2023/04/25 05:06:20;;;;;;;7.90;7.10;;;13.80;99.90;;;;;;5061271;28;20274;-74
2023/04/25 05:09:29;;;;;;;8.77;7.80;;;13.80;99.90;;;;;;5051517;28;20283;-74
2023/04/25 05:12:34;;;;;;;9.57;8.00;;;13.80;99.90;;;;;;5046767;28;21032;-74
2023/04/25 05:15:33;;;;;;;8.73;7.85;;;13.70;99.90;;;;;;5055599;28;20311;-76
2023/04/25 05:18:48;;;;;;;9.07;8.02;;;13.60;99.90;;;;;;5041584;28;20294;-76
2023/04/25 05:21:57;;;;;;;9.85;8.35;;;13.70;99.90;;;;;;5058579;28;20259;-75
2023/04/25 05:24:56;;;;;;;9.40;8.07;;;13.80;99.90;;;;;;5050822;28;20228;-75
2023/04/25 05:27:53;;;;;;;9.48;8.48;;;13.70;99.90;;;;;;5073598;28;20234;-75
2023/04/25 05:31:00;;;;;;;11.85;9.10;;;13.50;99.90;;;;;;5074345;28;20215;-73
2023/04/25 05:34:02;;;;;;;9.73;8.45;;;13.60;99.90;;;;;;5071917;28;20359;-73
2023/04/25 05:37:04;;;;;;;9.90;8.50;;;13.50;99.90;;;;;;5107547;27;20322;-71
2023/04/25 05:39:55;;;;;;;11.35;8.80;;;13.50;99.90;;;;;;5085794;28;20236;-71
2023/04/25 05:43:14;;;;;;;9.95;8.77;;;13.50;99.90;;;;;;5076903;28;20271;-74
2023/04/25 05:46:10;;;;;;;8.93;8.00;;;13.40;99.90;;;;;;5082255;28;20215;-73
2023/04/25 05:49:12;;;;;;;9.40;8.35;;;13.40;99.90;;;;;;5077041;28;20216;-73
2023/04/25 05:52:25;;;;;;;10.57;8.52;;;13.50;99.90;;;;;;5073143;28;20239;-72
2023/04/25 05:55:28;;;;;;;9.95;8.88;;;13.70;99.90;;;;;;5097641;27;20590;-72
2023/04/25 05:58:19;;;;;;;11.10;8.82;;;13.60;99.90;;;;;;5076647;28;20236;-71
2023/04/25 06:01:09;;;;;;;10.05;9.00;;;13.60;99.90;;;;;;5098723;27;20654;-72
2023/04/25 06:03:58;;;;;;;10.20;9.20;;;13.60;99.90;;;;;;5072748;28;20701;-72
2023/04/25 06:06:47;;;;;;;10.10;8.95;;;13.50;99.90;;;;;;5078426;28;20309;-72
2023/04/25 06:09:38;;;;;;;9.65;8.65;;;13.50;99.90;;;;;;5075070;28;20817;-72
2023/04/25 06:12:27;;;;;;;10.07;9.07;;;13.50;99.90;;;;;;5073614;28;20294;-72
2023/04/25 06:15:16;;;;;;;9.70;8.55;;;13.40;99.90;;;;;;5095527;27;20247;-73
2023/04/25 06:18:16;;;;;;;9.93;8.98;;;13.50;99.90;;;;;;5078757;28;20227;-74
2023/04/25 06:21:05;;;;;;;10.45;9.45;;;13.50;99.90;;;;;;5076630;28;20306;-73
2023/04/25 06:23:54;;;;;;;9.85;8.82;;;13.50;99.90;;;;;;5099419;27;20274;-73
2023/04/25 06:26:47;;;;;;;10.30;9.13;;;13.50;99.90;;;;;;5097140;27;20231;-75
2023/04/25 06:29:36;;;;;;;9.48;8.48;;;13.40;99.90;;;;;;5092811;27;20742;-72
2023/04/25 06:32:27;;;;;;;10.50;9.18;;;13.30;99.90;;;;;;5076985;28;20240;-75
2023/04/25 06:35:16;;;;;;;11.25;9.05;;;13.40;99.90;;;;;;5072471;28;20335;-74
2023/04/25 06:38:05;;;;;;;10.35;9.25;;;13.30;99.90;;;;;;5076040;28;20442;-75
2023/04/25 06:40:54;;;;;;;9.27;8.30;;;13.20;99.90;;;;;;5099597;27;20228;-75
2023/04/25 06:43:44;;;;;;;10.40;8.30;;;13.20;99.90;;;;;;5108347;27;20358;-73
2023/04/25 06:46:51;;;;;;;9.05;7.85;;;13.20;99.90;;;;;;5074391;28;20216;-74
2023/04/25 06:49:41;;;;;;;8.57;7.32;;;13.20;99.90;;;;;;5069171;28;20257;-73
2023/04/25 06:52:31;;;;;;;8.25;7.45;;;13.00;99.90;;;;;;5098563;27;20228;-74
2023/04/25 06:55:21;;;;;;;13.18;9.10;;;13.00;99.90;;;;;;5089703;28;20220;-75
2023/04/25 06:58:29;;;;;;;10.35;8.40;;;13.00;99.90;;;;;;5069469;28;20222;-74
2023/04/25 07:01:32;;;;;;;11.65;8.75;;;13.10;99.90;;;;;;5074256;28;20399;-75
2023/04/25 07:04:25;;;;;;;9.35;8.35;;;13.10;99.90;;;;;;5090396;28;20226;-74
2023/04/25 07:07:19;;;;;;;9.63;8.02;;;13.30;99.90;;;;;;5067909;28;20219;-75
2023/04/25 07:10:15;;;;;;;8.93;7.82;;;13.30;99.90;;;;;;5080588;28;20231;-74
2023/04/25 07:13:07;;;;;;;9.43;7.43;;;13.40;99.90;;;;;;5076788;28;20225;-73
2023/04/25 07:15:56;;;;;;;9.38;7.97;;;13.40;99.90;;;;;;5070194;28;20219;-74
2023/04/25 07:18:47;;;;;;;8.25;7.45;;;13.50;99.90;;;;;;5069001;28;20236;-73
2023/04/25 07:21:36;;;;;;;10.55;8.20;;;13.60;99.90;;;;;;5072094;28;20227;-75
2023/04/25 07:24:26;;;;;;;10.07;7.68;;;13.90;99.90;;;;;;5071766;28;20350;-73
2023/04/25 07:27:16;;;;;;;8.23;7.40;;;13.90;99.90;;;;;;5070480;28;20393;-74
2023/04/25 07:30:16;;;;;;;9.52;7.57;;;14.00;99.90;;;;;;5075747;28;20230;-75
2023/04/25 07:33:05;;;;;;;10.95;7.97;;;14.10;99.90;;;;;;5073929;28;20223;-74
2023/04/25 07:35:56;;;;;;;8.52;7.68;;;14.10;99.90;;;;;;5075349;28;20246;-74
2023/04/25 07:38:45;;;;;;;8.48;7.20;;;14.10;99.90;;;;;;5075772;28;20219;-74
2023/04/25 07:41:34;;;;;;;9.35;8.15;;;14.00;99.90;;;;;;5075305;28;20427;-74
2023/04/25 07:44:24;;;;;;;8.90;7.07;;;13.80;99.90;;;;;;5099591;27;20227;-74
2023/04/25 07:47:13;;;;;;;8.63;7.60;;;13.70;99.90;;;;;;5076014;28;20218;-74
2023/04/25 07:50:03;;;;;;;8.88;7.20;;;13.60;99.90;;;;;;5073991;28;20224;-73
2023/04/25 07:52:54;;;;;;;9.27;7.75;;;13.70;99.90;;;;;;5098150;27;20650;-73
2023/04/25 07:55:49;;;;;;;8.05;7.25;;;13.70;99.90;;;;;;5074309;28;20220;-74
2023/04/25 07:58:39;;;;;;;9.32;6.93;;;13.50;99.90;;;;;;5099471;27;20642;-75
2023/04/25 08:01:31;;;;;;;9.00;6.78;;;13.40;99.90;;;;;;5068871;28;20310;-74
2023/04/25 08:04:23;;;;;;;7.88;6.70;;;13.50;99.90;;;;;;5077498;28;20233;-73
2023/04/25 08:07:20;;;;;;;8.60;6.55;;;13.40;99.90;;;;;;5066929;28;20230;-73
2023/04/25 08:10:15;;;;;;;8.20;6.15;;;13.40;99.90;;;;;;5078184;28;20730;-73
2023/04/25 08:13:04;;;;;;;6.97;6.28;;;13.40;99.90;;;;;;5079193;28;20714;-72
2023/04/25 08:15:53;;;;;;;7.60;5.90;;;13.20;99.90;;;;;;5080300;28;20234;-68
2023/04/25 08:18:43;;;;;;;8.27;6.63;;;13.10;99.90;;;;;;5078028;28;20296;-72
2023/04/25 08:21:32;;;;;;;7.22;6.20;;;13.10;99.90;;;;;;5071673;28;20246;-73
2023/04/25 08:24:25;;;;;;;7.32;5.85;;;13.10;99.90;;;;;;5104968;27;20234;-74
2023/04/25 08:27:15;;;;;;;7.07;5.57;;;13.20;99.90;;;;;;5064734;28;20223;-74
2023/04/25 08:30:05;;;;;;;6.22;5.28;;;13.30;99.90;;;;;;5074304;28;20728;-75
2023/04/25 08:32:54;;;;;;;6.35;5.28;;;13.30;99.90;;;;;;5074383;28;20233;-73
2023/04/25 08:36:03;;;;;;;5.38;4.90;;;13.30;99.90;;;;;;5072522;28;20294;-74
2023/04/25 08:38:53;;;;;;;5.70;5.20;;;13.20;99.90;;;;;;5070981;28;20223;-73
2023/04/25 08:41:44;;;;;;;6.47;5.55;;;13.10;99.90;;;;;;5071102;28;20240;-74
2023/04/25 08:44:39;;;;;;;7.38;4.68;;;13.30;99.90;;;;;;5070243;28;20243;-73
2023/04/25 08:47:31;;;;;;;5.60;5.10;;;13.10;99.90;;;;;;5069650;28;20220;-75
2023/04/25 08:50:22;;;;;;;6.93;4.90;;;13.00;99.90;;;;;;5096226;28;20231;-77
2023/04/25 08:53:17;;;;;;;6.20;5.60;;;13.00;99.90;;;;;;5074346;28;20302;-74
2023/04/25 08:56:13;;;;;;;8.88;6.03;;;13.00;99.90;;;;;;5096820;28;20924;-75
2023/04/25 08:59:03;;;;;;;6.85;6.25;;;13.00;99.90;;;;;;5082861;28;20690;-75
2023/04/25 09:01:53;;;;;;;6.85;6.18;;;13.00;99.90;;;;;;5102821;27;20228;-74
2023/04/25 09:04:44;;;;;;;6.40;5.80;;;12.90;99.90;;;;;;5077623;28;20239;-73
2023/04/25 09:07:34;;;;;;;7.00;6.40;;;13.00;99.90;;;;;;5101659;28;20237;-73
2023/04/25 09:10:25;;;;;;;6.85;6.15;;;12.90;99.90;;;;;;5073117;28;20215;-74
2023/04/25 09:13:25;;;;;;;6.90;6.30;;;12.90;99.90;;;;;;5097184;28;20247;-74
2023/04/25 09:16:32;;;;;;;5.90;5.38;;;13.00;99.90;;;;;;5072537;28;20220;-75
2023/04/25 09:19:53;;;;;;;6.90;5.68;;;12.80;99.90;;;;;;5073816;28;20548;-73
2023/04/25 09:23:03;;;;;;;7.60;6.65;;;12.80;99.90;;;;;;5070385;28;20766;-73
2023/04/25 09:25:54;;;;;;;10.57;7.65;;;12.80;99.90;;;;;;5069135;28;20215;-73
2023/04/25 09:28:43;;;;;;;8.18;7.13;;;12.90;99.90;;;;;;5080035;27;20340;-74
2023/04/25 09:31:34;;;;;;;9.90;8.90;;;13.00;99.90;;;;;;5075534;28;20299;-74
2023/04/25 09:34:27;;;;;;;10.45;9.20;;;13.00;99.90;;;;;;5071051;28;20224;-74
2023/04/25 09:37:21;;;;;;;9.73;8.80;;;13.00;99.90;;;;;;5080579;28;20344;-75
2023/04/25 09:40:31;;;;;;;13.68;9.70;;;12.80;99.90;;;;;;5080911;28;20224;-73
2023/04/25 09:43:32;;;;;;;11.48;10.38;;;13.20;99.90;;;;;;5075779;28;20296;-74
2023/04/25 09:46:25;;;;;;;11.25;10.25;;;13.10;99.90;;;;;;5067778;28;20216;-74
2023/04/25 09:49:17;;;;;;;13.35;11.38;;;13.00;99.90;;;;;;5080029;28;20233;-72
2023/04/25 09:52:28;;;;;;;13.07;11.68;;;12.90;99.90;;;;;;5097951;27;20216;-74
2023/04/25 09:55:36;;;;;;;12.32;11.23;;;13.10;99.90;;;;;;5045895;28;20874;-73
2023/04/25 09:58:26;;;;;;;12.30;11.10;;;13.00;99.90;;;;;;5100791;27;20224;-72
2023/04/25 10:01:18;;;;;;;11.77;10.52;;;13.00;99.90;;;;;;5079862;28;20232;-72
2023/04/25 10:04:23;;;;;;;11.93;10.82;;;13.00;99.90;;;;;;5063283;28;20232;-72
2023/04/25 10:07:28;;;;;;;13.60;12.25;;;12.90;99.90;;;;;;5071903;28;20222;-74
2023/04/25 10:10:19;;;;;;;13.02;11.73;;;13.00;99.90;;;;;;5081303;28;20262;-71
2023/04/25 10:13:09;;;;;;;12.63;11.38;;;13.10;99.90;;;;;;5085166;28;20216;-72
2023/04/25 10:15:59;;;;;;;14.35;12.85;;;13.00;99.90;;;;;;5085516;28;20226;-72
2023/04/25 10:18:49;;;;;;;12.38;11.18;;;12.80;99.90;;;;;;5074063;28;20794;-72
2023/04/25 10:21:45;;;;;;;12.18;10.98;;;12.90;99.90;;;;;;5083828;28;20237;-72
2023/04/25 10:24:36;;;;;;;11.77;10.60;;;12.70;99.90;;;;;;5079826;28;20234;-73
2023/04/25 10:27:28;;;;;;;12.20;10.90;;;12.70;99.90;;;;;;5075262;28;20600;-72
2023/04/25 10:30:17;;;;;;;12.93;11.73;;;12.70;99.90;;;;;;5074483;28;20228;-73
2023/04/25 10:33:18;;;;;;;12.95;11.52;;;12.80;99.90;;;;;;5078989;27;20863;-73
2023/04/25 10:36:14;;;;;;;14.15;12.75;;;12.80;99.90;;;;;;5068897;28;20249;-72
2023/04/25 10:39:07;;;;;;;11.95;10.85;;;12.90;99.90;;;;;;5076124;28;20627;-73
2023/04/25 10:41:58;;;;;;;13.35;11.95;;;12.80;99.90;;;;;;5076628;28;20243;-73
2023/04/25 10:45:05;;;;;;;13.57;11.50;;;13.00;99.90;;;;;;5068872;28;20227;-74
2023/04/25 10:47:55;;;;;;;12.57;10.77;;;13.00;99.90;;;;;;5067398;28;20227;-72
2023/04/25 10:50:44;;;;;;;11.27;10.27;;;13.10;99.90;;;;;;5105791;27;20280;-72
2023/04/25 10:53:35;;;;;;;12.15;11.05;;;13.10;99.90;;;;;;5073264;28;20219;-73
2023/04/25 10:56:25;;;;;;;11.70;10.65;;;12.90;99.90;;;;;;5084946;27;20610;-73
2023/04/25 10:59:16;;;;;;;13.20;11.80;;;13.00;99.90;;;;;;5071810;28;20219;-73
2023/04/25 11:02:13;;;;;;;11.90;10.85;;;12.90;99.90;;;;;;5067015;28;20261;-73
2023/04/25 11:05:04;;;;;;;12.25;10.25;;;13.00;99.90;;;;;;5076925;28;20234;-74
2023/04/25 11:07:57;;;;;;;12.07;10.88;;;13.00;99.90;;;;;;5079384;28;20235;-73
2023/04/25 11:10:49;;;;;;;12.35;11.15;;;12.90;99.90;;;;;;5080158;28;20302;-75
2023/04/25 11:13:39;;;;;;;13.80;12.50;;;12.90;99.90;;;;;;5069652;28;20243;-73
2023/04/25 11:16:32;;;;;;;13.57;12.35;;;13.10;99.90;;;;;;5077116;28;20231;-74
2023/04/25 11:19:22;;;;;;;14.55;11.73;;;13.00;99.90;;;;;;5081188;28;20216;-72
2023/04/25 11:22:11;;;;;;;12.73;11.52;;;13.10;99.90;;;;;;5102562;27;20226;-74
2023/04/25 11:25:06;;;;;;;13.00;11.65;;;13.20;99.90;;;;;;5074292;28;20699;-74
2023/04/25 11:28:00;;;;;;;12.98;11.70;;;13.10;99.90;;;;;;5069027;28;20703;-74
2023/04/25 11:30:50;;;;;;;12.95;11.65;;;13.10;99.90;;;;;;5054595;28;21095;-75
2023/04/25 11:33:40;;;;;;;11.90;10.80;;;13.10;99.90;;;;;;5067368;28;20227;-75
2023/04/25 11:36:31;;;;;;;12.27;11.18;;;13.20;99.90;;;;;;5102453;27;20718;-74
2023/04/25 11:39:20;;;;;;;12.55;11.43;;;13.20;99.90;;;;;;5079814;28;20260;-74
2023/04/25 11:42:12;;;;;;;11.48;10.45;;;13.30;99.90;;;;;;5073628;28;20986;-73
2023/04/25 11:45:02;;;;;;;12.13;10.93;;;13.30;99.90;;;;;;5069580;28;20226;-74
2023/04/25 11:47:50;;;;;;;11.30;10.20;;;13.30;99.90;;;;;;5076351;28;20286;-74
2023/04/25 11:50:40;;;;;;;12.30;11.10;;;13.20;99.90;;;;;;5078076;28;20843;-74
2023/04/25 11:53:30;;;;;;;11.25;10.25;;;13.30;99.90;;;;;;5077841;28;20227;-74
2023/04/25 11:56:20;;;;;;;12.35;11.15;;;13.30;99.90;;;;;;5069379;28;20746;-75
2023/04/25 11:59:11;;;;;;;10.80;9.85;;;13.30;99.90;;;;;;5075297;28;20216;-73
2023/04/25 12:02:01;;;;;;;11.30;10.10;;;13.30;99.90;;;;;;5106204;27;20231;-73
2023/04/25 12:04:50;;;;;;;12.05;10.85;;;13.20;99.90;;;;;;5072652;28;20228;-73
2023/04/25 12:07:40;;;;;;;10.90;9.85;;;13.30;99.90;;;;;;5071367;28;20592;-73
2023/04/25 12:10:31;;;;;;;10.27;9.20;;;13.30;99.90;;;;;;5067149;28;20246;-72
2023/04/25 12:13:21;;;;;;;10.38;9.40;;;13.30;99.90;;;;;;5073014;28;20699;-73
2023/04/25 12:16:10;;;;;;;10.45;8.80;;;13.20;99.90;;;;;;5072279;28;20233;-76
2023/04/25 12:19:00;;;;;;;8.75;7.85;;;13.30;99.90;;;;;;5074179;28;20265;-73
2023/04/25 12:21:50;;;;;;;10.30;8.40;;;13.20;99.90;;;;;;5073776;27;20228;-74
2023/04/25 12:24:46;;;;;;;8.52;7.63;;;13.30;99.90;;;;;;5068670;28;20228;-72
2023/04/25 12:27:37;;;;;;;8.05;7.35;;;13.30;99.90;;;;;;5063173;28;20286;-73
2023/04/25 12:30:26;;;;;;;9.15;8.07;;;13.40;99.90;;;;;;5081774;28;20223;-76
2023/04/25 12:33:15;;;;;;;8.38;7.00;;;13.50;99.90;;;;;;5079296;28;20234;-74
2023/04/25 12:36:08;;;;;;;9.05;7.65;;;13.50;99.90;;;;;;5086844;28;20306;-73
2023/04/25 12:39:03;;;;;;;7.50;6.82;;;13.50;99.90;;;;;;5080583;28;20224;-73
2023/04/25 12:41:53;;;;;;;8.63;6.63;;;13.40;99.90;;;;;;5078166;28;20242;-74
2023/04/25 12:44:43;;;;;;;7.70;6.82;;;13.40;99.90;;;;;;5069675;28;20755;-72
2023/04/25 12:47:35;;;;;;;8.30;6.53;;;13.50;99.90;;;;;;5070873;28;20227;-72
2023/04/25 12:50:24;;;;;;;10.27;6.90;;;13.40;99.90;;;;;;5072528;28;20231;-73
2023/04/25 12:53:12;;;;;;;7.78;6.47;;;13.40;99.90;;;;;;5066711;28;20231;-73
2023/04/25 12:56:02;;;;;;;7.22;5.88;;;13.50;99.90;;;;;;5069057;28;20313;-72
2023/04/25 12:58:52;;;;;;;8.25;6.10;;;13.50;99.90;;;;;;5098245;28;20223;-73
2023/04/25 13:01:46;;;;;;;9.98;6.18;;;13.50;99.90;;;;;;5069311;28;20310;-77
2023/04/25 13:04:36;;;;;;;5.88;5.30;;;13.50;99.90;;;;;;5069074;28;20334;-75
2023/04/25 13:07:24;;;;;;;6.65;5.95;;;13.40;99.90;;;;;;5073376;28;20239;-75
2023/04/25 13:10:13;;;;;;;6.30;5.70;;;13.20;99.90;;;;;;5072516;28;20810;-74
2023/04/25 13:13:02;;;;;;;6.63;5.50;;;13.30;99.90;;;;;;5073297;28;20731;-75
2023/04/25 13:15:51;;;;;;;6.55;5.90;;;13.20;99.90;;;;;;5080936;28;20607;-74
2023/04/25 13:18:42;;;;;;;7.53;5.68;;;13.20;99.90;;;;;;5071533;28;20263;-74
2023/04/25 13:21:33;;;;;;;7.18;5.80;;;13.20;99.90;;;;;;5076159;28;20250;-74
2023/04/25 13:24:21;;;;;;;6.50;5.65;;;13.30;99.90;;;;;;5086129;28;20376;-73
2023/04/25 13:27:11;;;;;;;5.93;5.32;;;13.40;99.90;;;;;;5100344;27;20268;-74
2023/04/25 13:30:00;;;;;;;8.85;5.25;;;13.30;99.90;;;;;;5076091;28;20737;-73
2023/04/25 13:32:48;;;;;;;6.13;4.53;;;13.50;99.90;;;;;;5077019;28;20213;-73
2023/04/25 13:35:39;;;;;;;6.47;5.13;;;13.50;99.90;;;;;;5079543;28;20231;-73
2023/04/25 13:38:28;;;;;;;5.35;4.38;;;13.50;99.90;;;;;;5074592;28;20208;-75
2023/04/25 13:41:18;;;;;;;5.15;4.32;;;13.30;99.90;;;;;;5074743;28;20824;-74
2023/04/25 13:44:07;;;;;;;6.93;4.82;;;13.30;99.90;;;;;;5082487;27;21080;-75
2023/04/25 13:46:57;;;;;;;5.90;5.30;;;13.50;99.90;;;;;;5080981;28;21035;-73
2023/04/25 13:49:46;;;;;;;6.15;4.85;;;13.40;99.90;;;;;;5080567;27;20301;-73
2023/04/25 13:52:37;;;;;;;5.55;4.90;;;13.40;99.90;;;;;;5074042;28;20432;-70
2023/04/25 13:55:26;;;;;;;5.55;5.05;;;13.40;99.90;;;;;;5067483;28;20224;-74
2023/04/25 13:58:15;;;;;;;6.13;5.40;;;13.50;99.90;;;;;;5077306;28;20212;-75
2023/04/25 14:01:04;;;;;;;7.57;5.50;;;13.40;99.90;;;;;;5073778;28;20235;-71
2023/04/25 14:03:53;;;;;;;11.23;9.55;;;13.40;99.90;;;;;;5079031;28;20215;-72
2023/04/25 14:06:45;;;;;;;8.35;5.80;;;13.40;99.90;;;;;;5104504;27;20219;-73
2023/04/25 14:09:36;;;;;;;7.75;6.32;;;13.30;99.90;;;;;;5072504;28;20824;-72
2023/04/25 14:12:25;;;;;;;6.65;5.97;;;13.40;99.90;;;;;;5073950;28;20315;-74
2023/04/25 14:15:14;;;;;;;6.78;5.85;;;13.40;99.90;;;;;;5109461;27;20220;-73
2023/04/25 14:18:03;;;;;;;6.50;5.50;;;13.40;99.90;;;;;;5078397;28;20223;-74
2023/04/25 14:20:52;;;;;;;8.00;5.80;;;13.40;99.90;;;;;;5073193;28;20492;-74
2023/04/25 14:23:41;;;;;;;6.15;5.55;;;13.30;99.90;;;;;;5072907;28;20231;-72
2023/04/25 14:26:35;;;;;;;5.65;5.07;;;13.30;99.90;;;;;;5069646;28;20224;-74
2023/04/25 14:29:23;;;;;;;8.88;5.80;;;13.20;99.90;;;;;;5078158;28;20244;-74
2023/04/25 14:32:12;;;;;;;7.20;5.35;;;13.20;99.90;;;;;;5075168;28;20234;-74
2023/04/25 14:35:01;;;;;;;7.68;5.35;;;13.10;99.90;;;;;;5075510;28;20212;-74
2023/04/25 14:37:51;;;;;;;5.78;4.80;;;13.20;99.90;;;;;;5104937;27;20641;-74
2023/04/25 14:40:40;;;;;;;6.30;5.22;;;13.10;99.90;;;;;;5071287;28;20235;-73
2023/04/25 14:43:30;;;;;;;5.35;4.85;;;13.10;99.90;;;;;;5075021;28;20234;-73
2023/04/25 14:46:19;;;;;;;5.70;5.18;;;13.10;99.90;;;;;;5079728;28;20228;-73
2023/04/25 14:49:08;;;;;;;5.28;4.75;;;13.00;99.90;;;;;;5066268;28;20319;-73